createdAt,value
2023-01-22T00:01:02.855Z,20.23
2023-01-22T00:03:30.237Z,23.30
2023-01-22T00:05:57.591Z,23.13
2023-01-22T00:08:24.933Z,25.63
2023-01-22T00:10:52.977Z,21.15
2023-01-22T00:13:21.572Z,21.23
2023-01-22T00:15:49.119Z,21.13
2023-01-22T00:18:17.023Z,24.98
2023-01-22T00:20:51.881Z,23.58
2023-01-22T00:23:19.717Z,25.42
2023-01-22T00:25:47.215Z,25.02
2023-01-22T00:28:15.749Z,22.35
2023-01-22T00:30:43.275Z,24.67
2023-01-22T00:33:10.743Z,27.45
2023-01-22T00:35:38.122Z,25.13
2023-01-22T00:38:06.846Z,26.20
2023-01-22T00:40:34.534Z,28.75
2023-01-22T00:43:01.882Z,23.92
2023-01-22T00:45:30.878Z,23.65
2023-01-22T00:50:39.441Z,21.75
2023-01-22T00:53:06.857Z,25.48
2023-01-22T00:55:34.232Z,30.17
2023-01-22T00:58:01.576Z,24.27
2023-01-22T01:00:29.239Z,26.55
2023-01-22T01:03:15.029Z,25.90
2023-01-22T01:05:43.320Z,33.40
2023-01-22T01:08:10.650Z,35.38
2023-01-22T01:10:39.567Z,30.65
2023-01-22T01:13:06.913Z,28.80
2023-01-22T01:15:34.998Z,32.75
2023-01-22T01:18:02.315Z,31.05
2023-01-22T01:20:29.719Z,27.60
2023-01-22T01:22:57.293Z,30.63
2023-01-22T01:25:24.931Z,31.48
2023-01-22T01:27:52.218Z,26.83
2023-01-22T01:30:19.878Z,32.63
2023-01-22T01:32:47.610Z,35.33
2023-01-22T01:35:15.144Z,30.33
2023-01-22T01:37:42.449Z,33.33
2023-01-22T01:40:10.546Z,37.00
2023-01-22T01:42:42.343Z,32.70
2023-01-22T01:45:24.078Z,35.72
2023-01-22T01:48:04.030Z,31.85
2023-01-22T01:50:31.586Z,34.58
2023-01-22T01:53:00.982Z,39.50
2023-01-22T01:55:31.739Z,29.67
2023-01-22T01:58:05.437Z,32.97
2023-01-22T02:00:35.588Z,36.00
2023-01-22T02:03:03.582Z,28.90
2023-01-22T02:05:36.547Z,33.55
2023-01-22T02:08:04.559Z,36.10
2023-01-22T02:10:32.375Z,32.17
2023-01-22T02:13:07.787Z,29.83
2023-01-22T02:15:37.489Z,32.25
2023-01-22T02:18:04.979Z,29.95
2023-01-22T02:20:37.800Z,28.50
2023-01-22T02:23:08.608Z,30.63
2023-01-22T02:25:36.231Z,31.90
2023-01-22T02:28:03.630Z,29.60
2023-01-22T02:30:31.053Z,33.38
2023-01-22T02:32:58.576Z,30.42
2023-01-22T02:35:26.107Z,31.88
2023-01-22T02:37:53.462Z,30.73
2023-01-22T02:40:21.992Z,27.95
2023-01-22T02:42:49.434Z,31.50
2023-01-22T02:45:16.892Z,28.88
2023-01-22T02:47:44.293Z,31.17
2023-01-22T02:50:12.251Z,30.88
2023-01-22T02:52:40.439Z,30.25
2023-01-22T02:55:08.540Z,32.30
2023-01-22T02:57:35.979Z,33.78
2023-01-22T03:00:04.503Z,30.05
2023-01-22T03:02:32.076Z,29.02
2023-01-22T03:05:05.083Z,35.70
2023-01-22T03:07:42.536Z,31.10
2023-01-22T03:10:19.550Z,30.85
2023-01-22T03:13:06.707Z,36.97
2023-01-22T03:15:52.966Z,36.67
2023-01-22T03:18:39.016Z,35.35
2023-01-22T03:21:19.040Z,34.05
2023-01-22T03:23:55.934Z,31.63
2023-01-22T03:26:24.170Z,35.92
2023-01-22T03:28:52.234Z,41.00
2023-01-22T03:31:19.769Z,35.03
2023-01-22T03:33:47.373Z,37.20
2023-01-22T03:36:15.854Z,41.03
2023-01-22T03:38:51.287Z,40.60
2023-01-22T03:41:21.910Z,42.13
2023-01-22T03:43:50.051Z,37.85
2023-01-22T03:48:55.193Z,36.85
2023-01-22T03:51:23.797Z,42.22
2023-01-22T03:53:51.225Z,41.97
2023-01-22T03:56:21.181Z,40.60
2023-01-22T03:58:50.221Z,49.85
2023-01-22T04:01:26.171Z,37.38
2023-01-22T04:03:54.241Z,46.78
2023-01-22T04:06:24.775Z,39.42
2023-01-22T04:08:54.846Z,41.05
2023-01-22T04:11:27.142Z,43.22
2023-01-22T04:13:56.011Z,46.33
2023-01-22T04:16:24.560Z,40.65
2023-01-22T04:18:54.603Z,36.90
2023-01-22T04:21:40.619Z,44.20
2023-01-22T04:24:10.496Z,40.40
2023-01-22T04:26:37.792Z,41.92
2023-01-22T04:29:05.544Z,50.40
2023-01-22T04:31:33.072Z,42.25
2023-01-22T04:34:26.701Z,46.85
2023-01-22T04:37:16.686Z,47.55
2023-01-22T04:39:45.343Z,39.50
2023-01-22T04:42:12.798Z,44.22
2023-01-22T04:44:40.230Z,44.33
2023-01-22T04:47:08.724Z,44.70
2023-01-22T04:49:38.041Z,45.75
2023-01-22T04:52:08.526Z,46.38
2023-01-22T04:54:36.066Z,48.50
2023-01-22T04:57:03.439Z,47.45
2023-01-22T04:59:30.804Z,44.20
2023-01-22T05:01:58.751Z,44.20
2023-01-22T05:04:26.213Z,50.63
2023-01-22T05:06:53.856Z,46.30
2023-01-22T05:09:21.484Z,48.20
2023-01-22T05:11:54.091Z,40.85
2023-01-22T05:14:21.608Z,46.65
2023-01-22T05:16:49.649Z,46.80
2023-01-22T05:19:17.056Z,44.83
2023-01-22T05:21:44.751Z,48.33
2023-01-22T05:24:16.540Z,42.42
2023-01-22T05:26:43.922Z,46.80
2023-01-22T05:29:15.366Z,46.88
2023-01-22T05:32:18.266Z,46.75
2023-01-22T05:34:52.194Z,40.80
2023-01-22T05:37:19.566Z,42.92
2023-01-22T05:39:47.063Z,42.53
2023-01-22T05:42:16.668Z,41.38
2023-01-22T05:44:47.209Z,45.10
2023-01-22T05:47:15.508Z,44.88
2023-01-22T05:49:58.081Z,50.47
2023-01-22T05:52:25.552Z,45.88
2023-01-22T05:54:52.900Z,42.92
2023-01-22T05:57:20.312Z,43.72
2023-01-22T05:59:47.869Z,46.63
2023-01-22T06:02:15.433Z,42.78
2023-01-22T06:04:44.700Z,52.67
2023-01-22T06:07:20.485Z,43.10
2023-01-22T06:09:48.266Z,43.30
2023-01-22T06:12:16.440Z,41.30
2023-01-22T06:14:43.747Z,40.17
2023-01-22T06:17:12.813Z,39.63
2023-01-22T06:19:45.465Z,45.05
2023-01-22T06:22:13.851Z,43.40
2023-01-22T06:24:48.076Z,43.30
2023-01-22T06:27:18.070Z,42.97
2023-01-22T06:29:53.582Z,46.45
2023-01-22T06:32:21.724Z,51.30
2023-01-22T06:34:49.056Z,42.53
2023-01-22T06:37:18.066Z,42.33
2023-01-22T06:39:45.495Z,44.35
2023-01-22T06:42:22.247Z,40.28
2023-01-22T06:44:51.823Z,47.50
2023-01-22T06:47:21.574Z,48.03
2023-01-22T06:49:48.972Z,52.17
2023-01-22T06:52:16.541Z,49.63
2023-01-22T06:54:44.352Z,41.38
2023-01-22T06:57:11.767Z,42.15
2023-01-22T06:59:40.594Z,41.42
2023-01-22T07:02:08.010Z,44.85
2023-01-22T07:04:35.309Z,45.58
2023-01-22T07:07:02.584Z,43.92
2023-01-22T07:09:30.016Z,48.83
2023-01-22T07:12:00.497Z,43.72
2023-01-22T07:14:36.616Z,46.00
2023-01-22T07:17:04.548Z,45.83
2023-01-22T07:19:31.962Z,44.50
2023-01-22T07:21:59.553Z,47.53
2023-01-22T07:24:27.081Z,46.33
2023-01-22T07:26:54.456Z,44.85
2023-01-22T07:29:21.781Z,41.90
2023-01-22T07:31:49.938Z,44.35
2023-01-22T07:34:17.319Z,47.60
2023-01-22T07:36:46.874Z,46.83
2023-01-22T07:39:15.088Z,48.53
2023-01-22T07:41:42.568Z,47.42
2023-01-22T07:44:13.103Z,50.80
2023-01-22T07:46:40.557Z,43.90
2023-01-22T07:49:08.131Z,53.65
2023-01-22T07:51:35.472Z,42.90
2023-01-22T07:54:03.476Z,42.10
2023-01-22T07:56:30.910Z,45.03
2023-01-22T07:58:59.847Z,43.10
2023-01-22T08:01:27.305Z,45.05
2023-01-22T08:03:54.728Z,48.03
2023-01-22T08:06:22.019Z,49.08
2023-01-22T08:08:49.813Z,45.67
2023-01-22T08:11:17.167Z,48.55
2023-01-22T08:13:44.726Z,52.53
2023-01-22T08:16:12.195Z,44.58
2023-01-22T08:18:39.697Z,46.13
2023-01-22T08:21:07.366Z,44.38
2023-01-22T08:23:34.653Z,49.08
2023-01-22T08:26:04.217Z,51.88
2023-01-22T08:28:32.165Z,41.95
2023-01-22T08:31:01.338Z,46.33
2023-01-22T08:33:31.041Z,55.15
2023-01-22T08:35:58.489Z,49.60
2023-01-22T08:38:25.794Z,41.95
2023-01-22T08:40:53.791Z,48.00
2023-01-22T08:43:21.207Z,49.45
2023-01-22T08:45:50.072Z,49.55
2023-01-22T08:48:18.015Z,43.25
2023-01-22T08:50:45.629Z,46.17
2023-01-22T08:53:12.905Z,47.65
2023-01-22T08:55:40.291Z,44.08
2023-01-22T08:58:08.120Z,44.47
2023-01-22T09:00:35.495Z,48.55
2023-01-22T09:03:02.810Z,50.67
2023-01-22T09:05:30.379Z,44.67
2023-01-22T09:07:57.626Z,45.25
2023-01-22T09:10:25.293Z,51.08
2023-01-22T09:12:52.719Z,53.08
2023-01-22T09:15:20.082Z,58.30
2023-01-22T09:17:47.364Z,44.13
2023-01-22T09:20:14.882Z,41.17
2023-01-22T09:22:45.731Z,43.90
2023-01-22T09:25:13.610Z,45.15
2023-01-22T09:27:40.840Z,55.22
2023-01-22T09:30:09.841Z,45.72
2023-01-22T09:32:37.370Z,46.72
2023-01-22T09:35:05.241Z,43.92
2023-01-22T09:37:32.481Z,47.35
2023-01-22T09:39:59.841Z,44.70
2023-01-22T09:42:32.231Z,49.80
2023-01-22T09:45:06.884Z,52.10
2023-01-22T09:47:39.962Z,44.38
2023-01-22T09:50:15.606Z,44.87
2023-01-22T09:52:43.011Z,46.15
2023-01-22T09:55:16.773Z,49.92
2023-01-22T09:57:55.878Z,45.25
2023-01-22T10:00:54.531Z,48.00
2023-01-22T10:03:40.461Z,44.42
2023-01-22T10:06:14.596Z,49.05
2023-01-22T10:08:55.463Z,48.85
2023-01-22T10:11:23.027Z,50.10
2023-01-22T10:13:54.810Z,50.03
2023-01-22T10:16:22.148Z,55.10
2023-01-22T10:18:58.133Z,44.75
2023-01-22T10:21:31.834Z,48.80
2023-01-22T10:23:59.803Z,50.78
2023-01-22T10:26:29.802Z,48.00
2023-01-22T10:29:03.471Z,48.28
2023-01-22T10:31:41.388Z,46.33
2023-01-22T10:34:16.246Z,51.55
2023-01-22T10:36:50.675Z,49.78
2023-01-22T10:39:18.652Z,50.72
2023-01-22T10:41:47.847Z,43.17
2023-01-22T10:44:19.943Z,42.90
2023-01-22T10:47:09.998Z,48.67
2023-01-22T10:49:37.405Z,43.45
2023-01-22T10:52:23.081Z,42.10
2023-01-22T10:54:57.860Z,46.47
2023-01-22T10:57:34.379Z,39.75
2023-01-22T11:00:11.290Z,42.53
2023-01-22T11:02:46.292Z,44.75
2023-01-22T11:05:30.531Z,38.58
2023-01-22T11:08:05.362Z,41.65
2023-01-22T11:10:56.865Z,41.80
2023-01-22T11:13:35.323Z,46.78
2023-01-22T11:16:18.346Z,46.35
2023-01-22T11:19:12.653Z,47.47
2023-01-22T11:21:47.271Z,46.15
2023-01-22T11:24:36.222Z,43.53
2023-01-22T11:27:09.462Z,42.80
2023-01-22T11:29:55.298Z,43.17
2023-01-22T11:32:41.125Z,42.15
2023-01-22T11:35:35.276Z,42.63
2023-01-22T11:38:23.845Z,43.85
2023-01-22T11:41:04.080Z,46.88
2023-01-22T11:43:40.319Z,49.88
2023-01-22T11:46:07.651Z,42.33
2023-01-22T11:48:41.160Z,44.60
2023-01-22T11:51:17.967Z,43.25
2023-01-22T11:54:14.882Z,43.53
2023-01-22T11:57:03.767Z,42.78
2023-01-22T11:59:40.116Z,42.33
2023-01-22T12:02:22.467Z,41.92
2023-01-22T12:04:49.751Z,44.88
2023-01-22T12:07:52.175Z,39.03
2023-01-22T12:10:28.195Z,44.10
2023-01-22T12:13:32.392Z,45.88
2023-01-22T12:16:24.101Z,40.45
2023-01-22T12:19:00.531Z,45.63
2023-01-22T12:21:38.562Z,43.92
2023-01-22T12:24:18.866Z,42.88
2023-01-22T12:27:05.988Z,45.80
2023-01-22T12:29:47.350Z,45.85
2023-01-22T12:32:19.352Z,46.58
2023-01-22T12:35:10.306Z,43.03
2023-01-22T12:37:44.058Z,43.63
2023-01-22T12:40:20.454Z,46.15
2023-01-22T12:43:03.063Z,40.78
2023-01-22T12:45:53.850Z,39.33
2023-01-22T12:48:42.177Z,40.40
2023-01-22T12:51:38.739Z,44.95
2023-01-22T12:54:23.077Z,42.17
2023-01-22T12:59:33.586Z,38.72
2023-01-22T13:02:05.969Z,43.80
2023-01-22T13:04:34.286Z,42.97
2023-01-22T13:07:07.405Z,45.58
2023-01-22T13:09:37.845Z,42.03
2023-01-22T13:12:25.260Z,43.20
2023-01-22T13:14:52.857Z,42.35
2023-01-22T13:17:23.609Z,41.90
2023-01-22T13:19:52.008Z,39.50
2023-01-22T13:22:25.875Z,37.67
2023-01-22T13:24:55.579Z,42.35
2023-01-22T13:27:36.465Z,40.20
2023-01-22T13:30:31.265Z,41.83
2023-01-22T13:33:12.025Z,38.65
2023-01-22T13:35:46.900Z,43.85
2023-01-22T13:38:23.375Z,42.55
2023-01-22T13:41:04.295Z,39.47
2023-01-22T13:43:33.784Z,34.97
2023-01-22T13:46:01.221Z,39.17
2023-01-22T13:48:29.132Z,39.13
2023-01-22T13:51:00.496Z,41.88
2023-01-22T13:53:39.247Z,37.13
2023-01-22T13:56:11.951Z,36.95
2023-01-22T13:58:48.440Z,38.92
2023-01-22T14:01:36.797Z,38.50
2023-01-22T14:04:07.436Z,35.92
2023-01-22T14:06:47.466Z,37.58
2023-01-22T14:09:35.221Z,38.88
2023-01-22T14:12:15.516Z,34.17
2023-01-22T14:14:43.656Z,38.63
2023-01-22T14:17:34.203Z,36.58
2023-01-22T14:20:02.859Z,34.25
2023-01-22T14:22:30.104Z,36.22
2023-01-22T14:24:57.463Z,34.67
2023-01-22T14:27:29.040Z,34.65
2023-01-22T14:29:56.366Z,40.03
2023-01-22T14:32:23.950Z,34.30
2023-01-22T14:34:51.264Z,34.67
2023-01-22T14:37:19.181Z,32.58
2023-01-22T14:39:46.451Z,32.40
2023-01-22T14:42:13.721Z,35.25
2023-01-22T14:44:41.033Z,36.40
2023-01-22T14:47:08.259Z,35.47
2023-01-22T14:49:35.795Z,34.38
2023-01-22T14:52:03.076Z,29.35
2023-01-22T14:54:30.387Z,32.28
2023-01-22T14:56:59.707Z,29.52
2023-01-22T14:59:26.984Z,27.73
2023-01-22T15:01:54.319Z,29.75
2023-01-22T15:04:21.639Z,30.50
2023-01-22T15:06:48.900Z,29.95
2023-01-22T15:09:16.159Z,30.77
2023-01-22T15:11:43.499Z,31.42
2023-01-22T15:14:10.935Z,27.77
2023-01-22T15:16:39.052Z,31.90
2023-01-22T15:19:06.457Z,31.42
2023-01-22T15:21:33.715Z,30.52
2023-01-22T15:24:01.720Z,31.00
2023-01-22T15:26:33.605Z,35.05
2023-01-22T15:29:01.116Z,34.92
2023-01-22T15:31:28.476Z,32.15
2023-01-22T15:33:58.043Z,30.75
2023-01-22T15:36:25.409Z,32.95
2023-01-22T15:38:52.655Z,32.35
2023-01-22T15:41:25.848Z,35.90
2023-01-22T15:43:56.191Z,32.80
2023-01-22T15:46:25.446Z,34.67
2023-01-22T15:48:53.080Z,37.13
2023-01-22T15:51:21.262Z,36.00
2023-01-22T15:53:53.483Z,33.03
2023-01-22T15:56:22.594Z,32.08
2023-01-22T15:58:51.274Z,30.02
2023-01-22T16:01:19.610Z,29.17
2023-01-22T16:03:47.293Z,31.25
2023-01-22T16:06:20.055Z,32.58
2023-01-22T16:08:47.624Z,30.38
2023-01-22T16:11:15.662Z,28.08
2023-01-22T16:13:43.343Z,26.88
2023-01-22T16:16:31.640Z,28.05
2023-01-22T16:19:00.780Z,31.23
2023-01-22T16:21:28.062Z,27.52
2023-01-22T16:24:00.542Z,32.60
2023-01-22T16:26:30.973Z,29.83
2023-01-22T16:28:59.721Z,30.60
2023-01-22T16:31:30.052Z,29.23
2023-01-22T16:34:00.313Z,31.25
2023-01-22T16:36:29.947Z,30.77
2023-01-22T16:38:57.294Z,29.08
2023-01-22T16:41:30.068Z,31.38
2023-01-22T16:44:01.026Z,30.88
2023-01-22T16:46:31.269Z,29.42
2023-01-22T16:49:01.297Z,29.73
2023-01-22T16:51:34.804Z,29.35
2023-01-22T16:54:02.262Z,31.48
2023-01-22T16:56:29.508Z,30.67
2023-01-22T16:58:56.814Z,30.13
2023-01-22T17:01:24.227Z,31.80
2023-01-22T17:03:51.771Z,27.58
2023-01-22T17:06:29.540Z,29.73
2023-01-22T17:08:56.966Z,30.35
2023-01-22T17:11:24.280Z,26.48
2023-01-22T17:13:51.885Z,30.10
2023-01-22T17:16:19.995Z,27.83
2023-01-22T17:18:47.297Z,28.10
2023-01-22T17:21:17.484Z,29.13
2023-01-22T17:23:45.415Z,29.42
2023-01-22T17:26:15.549Z,27.70
2023-01-22T17:28:42.886Z,31.00
2023-01-22T17:31:12.913Z,29.08
2023-01-22T17:33:40.288Z,29.35
2023-01-22T17:36:09.463Z,23.77
2023-01-22T17:38:38.611Z,29.08
2023-01-22T17:41:26.194Z,28.92
2023-01-22T17:43:56.140Z,26.05
2023-01-22T17:46:26.760Z,25.23
2023-01-22T17:48:54.436Z,28.33
2023-01-22T17:51:24.436Z,25.88
2023-01-22T17:53:53.047Z,24.10
2023-01-22T17:56:26.574Z,28.25
2023-01-22T17:58:59.479Z,24.08
2023-01-22T18:01:30.253Z,25.88
2023-01-22T18:03:59.760Z,24.98
2023-01-22T18:06:27.008Z,24.90
2023-01-22T18:08:55.151Z,24.60
2023-01-22T18:11:27.951Z,27.63
2023-01-22T18:14:00.582Z,24.48
2023-01-22T18:16:30.189Z,25.58
2023-01-22T18:18:59.139Z,24.42
2023-01-22T18:21:26.886Z,22.60
2023-01-22T18:23:54.248Z,28.33
2023-01-22T18:26:23.098Z,32.05
2023-01-22T18:28:51.745Z,31.23
2023-01-22T18:31:24.783Z,29.27
2023-01-22T18:33:53.029Z,30.87
2023-01-22T18:36:26.382Z,30.90
2023-01-22T18:38:54.417Z,29.60
2023-01-22T18:41:24.027Z,33.58
2023-01-22T18:43:59.801Z,32.58
2023-01-22T18:46:29.983Z,33.58
2023-01-22T18:49:00.070Z,32.05
2023-01-22T18:51:28.703Z,32.50
2023-01-22T18:53:57.120Z,34.90
2023-01-22T18:56:27.425Z,33.20
2023-01-22T18:58:58.587Z,35.40
2023-01-22T19:01:29.072Z,36.15
2023-01-22T19:03:59.059Z,34.85
2023-01-22T19:06:30.102Z,36.60
2023-01-22T19:09:14.333Z,38.15
2023-01-22T19:14:13.759Z,33.55
2023-01-22T19:16:44.937Z,38.00
2023-01-22T19:19:13.708Z,42.75
2023-01-22T19:21:47.332Z,34.70
2023-01-22T19:24:17.211Z,37.35
2023-01-22T19:26:46.699Z,32.92
2023-01-22T19:29:20.016Z,33.15
2023-01-22T19:31:52.130Z,30.10
2023-01-22T19:34:25.565Z,34.70
2023-01-22T19:36:55.853Z,34.47
2023-01-22T19:39:27.911Z,35.53
2023-01-22T19:41:56.766Z,36.63
2023-01-22T19:44:24.146Z,32.30
2023-01-22T19:46:51.939Z,33.90
2023-01-22T19:49:19.289Z,35.35
2023-01-22T19:51:47.129Z,39.28
2023-01-22T19:54:14.706Z,37.20
2023-01-22T19:56:46.146Z,34.22
2023-01-22T19:59:16.239Z,41.22
2023-01-22T20:01:45.777Z,35.30
2023-01-22T20:04:29.945Z,42.53
2023-01-22T20:06:59.505Z,36.95
2023-01-22T20:09:26.849Z,40.33
2023-01-22T20:11:56.008Z,34.47
2023-01-22T20:14:25.456Z,36.83
2023-01-22T20:16:52.860Z,36.15
2023-01-22T20:19:20.133Z,37.67
2023-01-22T20:21:47.437Z,36.33
2023-01-22T20:24:15.106Z,37.38
2023-01-22T20:26:42.567Z,33.25
2023-01-22T20:29:09.875Z,35.55
2023-01-22T20:31:37.303Z,36.40
2023-01-22T20:34:05.215Z,35.80
2023-01-22T20:36:32.894Z,35.15
2023-01-22T20:39:01.929Z,34.97
2023-01-22T20:41:30.811Z,39.60
2023-01-22T20:43:58.027Z,41.13
2023-01-22T20:46:27.105Z,38.42
2023-01-22T20:48:57.581Z,38.30
2023-01-22T20:51:27.713Z,33.47
2023-01-22T20:53:56.497Z,39.25
2023-01-22T20:56:31.634Z,42.85
2023-01-22T20:59:02.087Z,42.78
2023-01-22T21:01:29.939Z,36.65
2023-01-22T21:03:58.830Z,40.30
2023-01-22T21:06:30.012Z,42.05
2023-01-22T21:08:58.697Z,41.45
2023-01-22T21:11:28.481Z,38.78
2023-01-22T21:13:57.919Z,37.72
2023-01-22T21:16:34.392Z,41.45
2023-01-22T21:19:07.049Z,43.78
2023-01-22T21:21:35.752Z,41.45
2023-01-22T21:24:03.048Z,42.03
2023-01-22T21:26:32.391Z,42.50
2023-01-22T21:29:06.289Z,47.28
2023-01-22T21:34:02.911Z,37.00
2023-01-22T21:36:45.715Z,43.45
2023-01-22T21:39:16.429Z,43.03
2023-01-22T21:41:44.407Z,44.30
2023-01-22T21:44:31.908Z,40.65
2023-01-22T21:46:59.219Z,44.08
2023-01-22T21:49:27.013Z,39.15
2023-01-22T21:51:59.955Z,36.47
2023-01-22T21:54:39.157Z,44.08
2023-01-22T21:57:08.084Z,45.13
2023-01-22T21:59:37.036Z,42.80
2023-01-22T22:02:05.667Z,42.17
2023-01-22T22:04:33.612Z,50.00
2023-01-22T22:07:00.880Z,46.38
2023-01-22T22:09:29.647Z,44.15
2023-01-22T22:11:59.025Z,41.92
2023-01-22T22:14:27.040Z,48.58
2023-01-22T22:16:55.107Z,39.00
2023-01-22T22:19:23.453Z,40.25
2023-01-22T22:21:51.284Z,43.05
2023-01-22T22:24:20.027Z,39.13
2023-01-22T22:26:47.571Z,42.10
2023-01-22T22:29:14.807Z,35.75
2023-01-22T22:31:42.186Z,35.65
2023-01-22T22:34:09.588Z,45.85
2023-01-22T22:36:36.978Z,38.92
2023-01-22T22:39:06.677Z,45.53
2023-01-22T22:41:36.252Z,40.45
2023-01-22T22:44:04.383Z,46.97
2023-01-22T22:46:37.182Z,44.80
2023-01-22T22:49:05.676Z,45.65
2023-01-22T22:51:38.401Z,40.30
2023-01-22T22:54:15.042Z,36.70
2023-01-22T22:56:44.729Z,38.08
2023-01-22T22:59:12.721Z,42.08
2023-01-22T23:01:40.181Z,41.72
2023-01-22T23:04:08.819Z,40.05
2023-01-22T23:06:37.280Z,43.22
2023-01-22T23:09:13.745Z,36.72
2023-01-22T23:11:42.136Z,41.15
2023-01-22T23:14:10.196Z,41.45
2023-01-22T23:16:40.665Z,44.78
2023-01-22T23:19:12.625Z,43.20
2023-01-22T23:21:43.088Z,38.80
2023-01-22T23:24:12.626Z,41.00
2023-01-22T23:26:41.341Z,36.15
2023-01-22T23:29:10.942Z,41.22
2023-01-22T23:31:39.513Z,39.30
2023-01-22T23:34:09.309Z,42.10
2023-01-22T23:36:36.866Z,40.22
2023-01-22T23:39:04.560Z,42.70
2023-01-22T23:41:31.863Z,35.58
2023-01-22T23:43:59.235Z,40.63
2023-01-22T23:46:28.312Z,40.53
2023-01-22T23:48:59.236Z,40.47
2023-01-22T23:51:27.569Z,41.58
2023-01-22T23:53:55.376Z,37.85
2023-01-22T23:56:27.712Z,36.70
2023-01-22T23:58:55.991Z,36.97
